createdAt,value
2019-05-06T00:00:59.616Z,100.00
2019-05-06T00:03:34.222Z,100.00
2019-05-06T00:06:04.771Z,100.00
2019-05-06T00:08:37.231Z,100.00
2019-05-06T00:11:09.329Z,100.00
2019-05-06T00:13:44.074Z,100.00
2019-05-06T00:16:17.058Z,100.00
2019-05-06T00:18:51.296Z,100.00
2019-05-06T00:21:24.577Z,100.00
2019-05-06T00:23:56.492Z,100.00
2019-05-06T00:26:44.809Z,100.00
2019-05-06T00:29:19.449Z,100.00
2019-05-06T00:31:53.528Z,100.00
2019-05-06T00:34:25.652Z,100.00
2019-05-06T00:36:57.817Z,100.00
2019-05-06T00:40:04.694Z,100.00
2019-05-06T00:42:54.176Z,100.00
2019-05-06T00:45:27.827Z,100.00
2019-05-06T00:48:00.425Z,100.00
2019-05-06T00:50:35.802Z,100.00
2019-05-06T00:53:10.137Z,100.00
2019-05-06T00:55:40.589Z,100.00
2019-05-06T00:58:14.221Z,100.00
2019-05-06T01:00:46.738Z,100.00
2019-05-06T01:03:20.997Z,100.00
2019-05-06T01:05:56.675Z,100.00
2019-05-06T01:08:27.965Z,100.00
2019-05-06T01:11:00.396Z,100.00
2019-05-06T01:13:39.638Z,100.00
2019-05-06T01:16:12.216Z,100.00
2019-05-06T01:18:45.651Z,100.00
2019-05-06T01:21:19.574Z,100.00
2019-05-06T01:23:56.288Z,100.00
2019-05-06T01:26:46.886Z,100.00
2019-05-06T01:29:18.821Z,100.00
2019-05-06T01:31:54.531Z,100.00
2019-05-06T01:34:25.210Z,100.00
2019-05-06T01:36:56.403Z,100.00
2019-05-06T01:39:46.218Z,100.00
2019-05-06T01:42:29.526Z,100.00
2019-05-06T01:45:04.623Z,100.00
2019-05-06T01:47:34.778Z,100.00
2019-05-06T01:50:07.902Z,100.00
2019-05-06T01:52:38.899Z,100.00
2019-05-06T01:55:14.047Z,100.00
2019-05-06T01:57:44.546Z,100.00
2019-05-06T02:00:18.851Z,100.00
2019-05-06T02:02:49.457Z,100.00
2019-05-06T02:05:24.293Z,100.00
2019-05-06T02:07:57.627Z,100.00
2019-05-06T02:10:31.028Z,100.00
2019-05-06T02:13:03.968Z,100.00
2019-05-06T02:15:36.491Z,100.00
2019-05-06T02:18:13.548Z,100.00
2019-05-06T02:20:47.016Z,100.00
2019-05-06T02:23:26.655Z,100.00
2019-05-06T02:25:59.389Z,100.00
2019-05-06T02:28:34.487Z,100.00
2019-05-06T02:31:25.702Z,100.00
2019-05-06T02:34:15.303Z,100.00
2019-05-06T02:36:55.262Z,100.00
2019-05-06T02:39:29.169Z,100.00
2019-05-06T02:42:04.013Z,100.00
2019-05-06T02:44:35.253Z,100.00
2019-05-06T02:47:18.610Z,100.00
2019-05-06T02:49:53.725Z,100.00
2019-05-06T02:52:24.684Z,100.00
2019-05-06T02:54:56.391Z,100.00
2019-05-06T02:57:26.784Z,100.00
2019-05-06T02:59:58.525Z,100.00
2019-05-06T03:02:39.775Z,100.00
2019-05-06T03:05:04.449Z,100.00
2019-05-06T03:07:37.856Z,100.00
2019-05-06T03:10:12.885Z,100.00
2019-05-06T03:12:46.816Z,100.00
2019-05-06T03:15:39.630Z,100.00
2019-05-06T03:18:10.681Z,100.00
2019-05-06T03:20:56.314Z,100.00
2019-05-06T03:23:34.496Z,100.00
2019-05-06T03:26:09.059Z,100.00
2019-05-06T03:28:48.765Z,100.00
2019-05-06T03:31:29.832Z,100.00
2019-05-06T03:34:35.799Z,100.00
2019-05-06T03:36:48.602Z,100.00
2019-05-06T03:39:18.248Z,100.00
2019-05-06T03:41:48.700Z,100.00
2019-05-06T03:44:24.117Z,100.00
2019-05-06T03:47:14.090Z,100.00
2019-05-06T03:49:50.230Z,100.00
2019-05-06T03:52:24.015Z,100.00
2019-05-06T03:54:57.687Z,100.00
2019-05-06T03:57:35.378Z,100.00
2019-05-06T04:00:05.301Z,100.00
2019-05-06T04:02:43.449Z,100.00
2019-05-06T04:05:15.435Z,100.00
2019-05-06T04:07:53.084Z,100.00
2019-05-06T04:10:26.215Z,100.00
2019-05-06T04:12:58.353Z,100.00
2019-05-06T04:15:35.846Z,100.00
2019-05-06T04:18:12.500Z,100.00
2019-05-06T04:21:09.228Z,100.00
2019-05-06T04:23:55.211Z,100.00
2019-05-06T04:26:49.701Z,100.00
2019-05-06T04:29:24.099Z,100.00
2019-05-06T04:31:56.377Z,100.00
2019-05-06T04:34:28.283Z,100.00
2019-05-06T04:36:59.764Z,100.00
2019-05-06T04:39:33.135Z,100.00
2019-05-06T04:42:08.907Z,100.00
2019-05-06T04:44:37.576Z,100.00
2019-05-06T04:47:08.831Z,100.00
2019-05-06T04:49:43.652Z,100.00
2019-05-06T04:52:17.128Z,100.00
2019-05-06T04:54:47.968Z,100.00
2019-05-06T04:57:23.465Z,100.00
2019-05-06T04:59:54.827Z,100.00
2019-05-06T05:02:27.958Z,100.00
2019-05-06T05:04:59.145Z,100.00
2019-05-06T05:07:33.460Z,100.00
2019-05-06T05:10:15.733Z,100.00
2019-05-06T05:13:06.551Z,100.00
2019-05-06T05:15:46.912Z,100.00
2019-05-06T05:18:25.219Z,100.00
2019-05-06T05:20:55.678Z,100.00
2019-05-06T05:23:28.907Z,100.00
2019-05-06T05:26:02.854Z,100.00
2019-05-06T05:28:34.279Z,100.00
2019-05-06T05:31:07.436Z,100.00
2019-05-06T05:33:39.004Z,100.00
2019-05-06T05:36:12.489Z,100.00
2019-05-06T05:38:45.759Z,100.00
2019-05-06T05:41:18.623Z,100.00
2019-05-06T05:43:53.969Z,100.00
2019-05-06T05:46:26.479Z,100.00
2019-05-06T05:49:35.582Z,100.00
2019-05-06T05:52:08.575Z,100.00
2019-05-06T05:54:42.273Z,100.00
2019-05-06T05:57:14.670Z,100.00
2019-05-06T05:59:48.258Z,100.00
2019-05-06T06:02:22.437Z,100.00
2019-05-06T06:04:57.451Z,100.00
2019-05-06T06:07:25.935Z,100.00
2019-05-06T06:10:04.889Z,100.00
2019-05-06T06:12:36.440Z,100.00
2019-05-06T06:15:27.786Z,100.00
2019-05-06T06:18:30.650Z,100.00
2019-05-06T06:21:36.913Z,100.00
2019-05-06T06:24:24.574Z,100.00
2019-05-06T06:26:56.830Z,100.00
2019-05-06T06:29:29.503Z,100.00
2019-05-06T06:32:23.042Z,100.00
2019-05-06T06:35:22.862Z,100.00
2019-05-06T06:38:32.277Z,100.00
2019-05-06T06:41:02.831Z,100.00
2019-05-06T06:43:35.173Z,100.00
2019-05-06T06:46:09.446Z,100.00
2019-05-06T06:48:43.060Z,100.00
2019-05-06T06:51:13.110Z,100.00
2019-05-06T06:53:42.448Z,100.00
2019-05-06T06:56:39.908Z,100.00
2019-05-06T06:59:23.099Z,100.00
2019-05-06T07:02:05.012Z,100.00
2019-05-06T07:04:39.019Z,100.00
2019-05-06T07:07:08.335Z,100.00
2019-05-06T07:09:37.548Z,100.00
2019-05-06T07:12:06.856Z,100.00
2019-05-06T07:14:36.359Z,100.00
2019-05-06T07:17:05.731Z,100.00
2019-05-06T07:19:42.114Z,100.00
2019-05-06T07:22:12.718Z,100.00
2019-05-06T07:24:43.115Z,100.00
2019-05-06T07:27:16.982Z,100.00
2019-05-06T07:29:48.453Z,100.00
2019-05-06T07:32:17.191Z,100.00
2019-05-06T07:34:46.440Z,100.00
2019-05-06T07:37:15.938Z,100.00
2019-05-06T07:39:45.165Z,100.00
2019-05-06T07:42:22.747Z,100.00
2019-05-06T07:45:12.316Z,100.00
2019-05-06T07:47:48.863Z,100.00
2019-05-06T07:50:18.139Z,100.00
2019-05-06T07:53:13.277Z,100.00
2019-05-06T07:55:42.711Z,100.00
2019-05-06T07:58:13.771Z,100.00
2019-05-06T08:00:43.329Z,100.00
2019-05-06T08:03:14.104Z,100.00
2019-05-06T08:05:54.650Z,100.00
2019-05-06T08:08:14.453Z,100.00
2019-05-06T08:10:43.674Z,100.00
2019-05-06T08:13:13.200Z,100.00
2019-05-06T08:15:42.410Z,100.00
2019-05-06T08:18:17.108Z,100.00
2019-05-06T08:20:46.594Z,100.00
2019-05-06T08:23:42.769Z,100.00
2019-05-06T08:26:16.409Z,100.00
2019-05-06T08:28:46.250Z,100.00
2019-05-06T08:31:17.457Z,100.00
2019-05-06T08:33:46.985Z,100.00
2019-05-06T08:36:22.676Z,100.00
2019-05-06T08:38:59.000Z,100.00
2019-05-06T08:41:28.730Z,100.00
2019-05-06T08:43:57.971Z,100.00
2019-05-06T08:46:45.554Z,100.00
2019-05-06T08:49:14.876Z,100.00
2019-05-06T08:52:03.405Z,100.00
2019-05-06T08:54:37.777Z,100.00
2019-05-06T08:57:07.145Z,100.00
2019-05-06T08:59:36.470Z,100.00
2019-05-06T09:02:05.974Z,100.00
2019-05-06T09:04:35.300Z,100.00
2019-05-06T09:07:04.659Z,100.00
2019-05-06T09:09:34.050Z,100.00
2019-05-06T09:12:03.553Z,100.00
2019-05-06T09:14:39.678Z,100.00
2019-05-06T09:17:12.104Z,100.00
2019-05-06T09:19:42.632Z,100.00
2019-05-06T09:22:13.147Z,100.00
2019-05-06T09:24:42.786Z,100.00
2019-05-06T09:27:16.817Z,100.00
2019-05-06T09:30:13.243Z,100.00
2019-05-06T09:32:44.360Z,100.00
2019-05-06T09:35:14.028Z,100.00
2019-05-06T09:37:43.389Z,100.00
2019-05-06T09:40:13.207Z,100.00
2019-05-06T09:42:42.674Z,100.00
2019-05-06T09:45:12.650Z,100.00
2019-05-06T09:48:03.158Z,100.00
2019-05-06T09:50:45.851Z,100.00
2019-05-06T09:53:16.973Z,100.00
2019-05-06T09:56:05.254Z,100.00
2019-05-06T10:05:55.840Z,100.00
2019-05-06T10:08:25.225Z,100.00
2019-05-06T10:10:59.531Z,100.00
2019-05-06T10:13:26.375Z,100.00
2019-05-06T10:15:57.629Z,100.00
2019-05-06T10:18:26.767Z,100.00
2019-05-06T10:20:56.071Z,100.00
2019-05-06T10:23:25.370Z,100.00
2019-05-06T10:25:54.595Z,100.00
2019-05-06T10:28:38.874Z,100.00
2019-05-06T10:31:12.668Z,100.00
2019-05-06T10:33:59.575Z,100.00
2019-05-06T10:36:35.021Z,100.00
2019-05-06T10:39:09.775Z,100.00
2019-05-06T10:41:42.377Z,100.00
2019-05-06T10:44:22.522Z,100.00
2019-05-06T10:46:52.742Z,100.00
2019-05-06T10:49:22.570Z,100.00
2019-05-06T10:52:02.247Z,100.00
2019-05-06T10:54:31.906Z,100.00
2019-05-06T10:57:13.494Z,100.00
2019-05-06T10:59:42.958Z,100.00
2019-05-06T11:02:43.007Z,100.00
2019-05-06T11:05:12.172Z,100.00
2019-05-06T11:07:43.083Z,100.00
2019-05-06T11:10:21.591Z,100.00
2019-05-06T11:12:43.734Z,100.00
2019-05-06T11:15:13.170Z,100.00
2019-05-06T11:17:43.612Z,100.00
2019-05-06T11:20:13.991Z,100.00
2019-05-06T11:22:43.818Z,100.00
2019-05-06T11:25:13.269Z,100.00
2019-05-06T11:27:45.041Z,100.00
2019-05-06T11:30:24.816Z,100.00
2019-05-06T11:33:04.559Z,100.00
2019-05-06T11:36:12.226Z,100.00
2019-05-06T11:38:43.111Z,100.00
2019-05-06T11:41:13.181Z,100.00
2019-05-06T11:43:43.004Z,100.00
2019-05-06T11:46:12.418Z,100.00
2019-05-06T11:48:43.127Z,100.00
2019-05-06T11:51:14.357Z,100.00
2019-05-06T11:53:43.612Z,100.00
2019-05-06T11:56:12.955Z,100.00
2019-05-06T11:58:53.123Z,100.00
2019-05-06T12:01:32.976Z,100.00
2019-05-06T12:04:02.840Z,100.00
2019-05-06T12:06:33.002Z,100.00
2019-05-06T12:09:06.467Z,100.00
2019-05-06T12:11:33.466Z,100.00
2019-05-06T12:14:02.812Z,100.00
2019-05-06T12:16:33.044Z,100.00
2019-05-06T12:19:03.006Z,100.00
2019-05-06T12:21:32.989Z,100.00
2019-05-06T12:24:03.150Z,100.00
2019-05-06T12:26:32.464Z,100.00
2019-05-06T12:29:02.344Z,100.00
2019-05-06T12:31:32.832Z,100.00
2019-05-06T12:34:02.788Z,100.00
2019-05-06T12:36:32.733Z,100.00
2019-05-06T12:39:20.125Z,100.00
2019-05-06T12:42:15.010Z,100.00
2019-05-06T12:45:15.897Z,100.00
2019-05-06T12:47:57.439Z,100.00
2019-05-06T12:50:26.665Z,100.00
2019-05-06T12:52:57.873Z,100.00
2019-05-06T12:55:27.561Z,100.00
2019-05-06T12:57:57.099Z,100.00
2019-05-06T13:00:28.606Z,100.00
2019-05-06T13:02:57.830Z,100.00
2019-05-06T13:05:27.071Z,100.00
2019-05-06T13:07:56.316Z,100.00
2019-05-06T13:10:25.648Z,100.00
2019-05-06T13:12:59.742Z,100.00
2019-05-06T13:15:29.166Z,100.00
2019-05-06T13:17:58.410Z,100.00
2019-05-06T13:20:28.010Z,100.00
2019-05-06T13:23:15.897Z,100.00
2019-05-06T13:25:42.995Z,100.00
2019-05-06T13:28:12.997Z,100.00
2019-05-06T13:30:43.310Z,100.00
2019-05-06T13:33:25.163Z,100.00
2019-05-06T13:35:54.430Z,100.00
2019-05-06T13:38:23.653Z,100.00
2019-05-06T13:40:57.039Z,100.00
2019-05-06T13:43:43.377Z,100.00
2019-05-06T13:46:33.399Z,100.00
2019-05-06T13:49:37.757Z,100.00
2019-05-06T13:52:09.298Z,100.00
2019-05-06T13:54:38.698Z,100.00
2019-05-06T13:57:08.791Z,100.00
2019-05-06T13:59:38.082Z,100.00
2019-05-06T14:02:24.950Z,100.00
2019-05-06T14:04:54.170Z,100.00
2019-05-06T14:07:24.193Z,100.00
2019-05-06T14:09:54.283Z,100.00
2019-05-06T14:12:23.679Z,100.00
2019-05-06T14:14:52.988Z,100.00
2019-05-06T14:17:22.623Z,100.00
2019-05-06T14:19:53.323Z,100.00
2019-05-06T14:22:23.544Z,100.00
2019-05-06T14:25:14.710Z,100.00
2019-05-06T14:27:45.133Z,100.00
2019-05-06T14:30:22.842Z,100.00
2019-05-06T14:32:52.780Z,100.00
2019-05-06T14:35:23.096Z,100.00
2019-05-06T14:37:52.921Z,100.00
2019-05-06T14:40:24.028Z,100.00
2019-05-06T14:42:54.737Z,100.00
2019-05-06T14:45:24.070Z,100.00
2019-05-06T14:47:53.468Z,94.70
2019-05-06T14:50:31.966Z,90.52
2019-05-06T14:52:53.907Z,80.88
2019-05-06T14:55:28.221Z,72.50
2019-05-06T14:57:57.649Z,71.78
2019-05-06T15:00:33.897Z,75.48
2019-05-06T15:03:03.125Z,79.58
2019-05-06T15:05:35.972Z,78.06
2019-05-06T15:08:04.535Z,86.94
2019-05-06T15:14:27.094Z,89.29
2019-05-06T15:16:56.775Z,97.23
2019-05-06T15:34:02.591Z,100.00
2019-05-06T15:36:41.986Z,100.00
2019-05-06T15:39:13.206Z,100.00
2019-05-06T15:41:42.954Z,100.00
2019-05-06T15:44:12.647Z,100.00
2019-05-06T15:46:43.656Z,100.00
2019-05-06T15:49:13.082Z,100.00
2019-05-06T15:51:42.881Z,100.00
2019-05-06T16:00:26.541Z,100.00
2019-05-06T16:02:56.246Z,100.00
2019-05-06T16:05:26.694Z,100.00
2019-05-06T16:07:58.779Z,100.00
2019-05-06T16:10:28.190Z,100.00
2019-05-06T16:13:02.227Z,100.00
2019-05-06T16:15:33.575Z,100.00
2019-05-06T16:18:04.446Z,100.00
2019-05-06T16:20:39.189Z,100.00
2019-05-06T16:23:36.926Z,100.00
2019-05-06T16:26:06.622Z,100.00
2019-05-06T16:28:37.397Z,100.00
2019-05-06T16:31:13.979Z,100.00
2019-05-06T16:33:49.540Z,100.00
2019-05-06T16:36:19.916Z,100.00
2019-05-06T16:38:54.504Z,100.00
2019-05-06T16:41:36.205Z,100.00
2019-05-06T16:44:06.143Z,100.00
2019-05-06T16:46:36.447Z,100.00
2019-05-06T16:49:06.346Z,100.00
2019-05-06T16:51:36.747Z,100.00
2019-05-06T16:54:06.358Z,100.00
2019-05-06T16:56:44.661Z,100.00
2019-05-06T16:59:13.486Z,100.00
2019-05-06T17:01:46.393Z,100.00
2019-05-06T17:08:12.313Z,100.00
2019-05-06T17:14:23.823Z,100.00
2019-05-06T17:16:57.094Z,100.00
2019-05-06T17:22:32.591Z,100.00
2019-05-06T17:25:02.507Z,100.00
2019-05-06T17:27:34.517Z,100.00
2019-05-06T17:30:12.817Z,100.00
2019-05-06T17:36:12.767Z,100.00
2019-05-06T17:42:10.408Z,100.00
2019-05-06T17:44:39.787Z,100.00
2019-05-06T17:47:46.623Z,100.00
2019-05-06T17:50:16.060Z,100.00
2019-05-06T17:52:45.770Z,100.00
2019-05-06T17:55:15.830Z,100.00
2019-05-06T17:57:47.386Z,100.00
2019-05-06T18:00:18.144Z,100.00
2019-05-06T18:06:16.083Z,100.00
2019-05-06T18:12:14.079Z,100.00
2019-05-06T18:15:19.818Z,100.00
2019-05-06T18:17:49.674Z,100.00
2019-05-06T18:20:19.019Z,100.00
2019-05-06T18:22:48.336Z,100.00
2019-05-06T18:25:18.598Z,100.00
2019-05-06T18:27:47.900Z,100.00
2019-05-06T18:30:24.890Z,100.00
2019-05-06T18:32:48.292Z,100.00
2019-05-06T18:35:18.125Z,100.00
2019-05-06T18:37:47.899Z,100.00
2019-05-06T18:40:17.142Z,100.00
2019-05-06T18:42:46.441Z,100.00
2019-05-06T18:45:15.945Z,100.00
2019-05-06T18:47:45.431Z,100.00
2019-05-06T18:50:14.681Z,100.00
2019-05-06T18:52:43.914Z,100.00
2019-05-06T18:55:13.549Z,100.00
2019-05-06T18:57:43.595Z,100.00
2019-05-06T19:00:17.683Z,100.00
2019-05-06T19:02:52.278Z,100.00
2019-05-06T19:05:32.480Z,100.00
2019-05-06T19:08:33.041Z,100.00
2019-05-06T19:11:08.350Z,100.00
2019-05-06T19:13:42.906Z,100.00
2019-05-06T19:16:17.423Z,100.00
2019-05-06T19:19:02.735Z,100.00
2019-05-06T19:21:34.328Z,100.00
2019-05-06T19:24:06.579Z,100.00
2019-05-06T19:26:42.984Z,100.00
2019-05-06T19:29:56.089Z,100.00
2019-05-06T19:32:29.481Z,100.00
2019-05-06T19:35:02.923Z,100.00
2019-05-06T19:37:45.696Z,100.00
2019-05-06T19:40:37.395Z,100.00
2019-05-06T19:43:12.384Z,100.00
2019-05-06T19:45:43.085Z,100.00
2019-05-06T19:48:15.635Z,100.00
2019-05-06T19:50:48.112Z,100.00
2019-05-06T19:53:23.987Z,100.00
2019-05-06T19:56:02.741Z,100.00
2019-05-06T19:58:35.434Z,100.00
2019-05-06T20:01:09.959Z,100.00
2019-05-06T20:03:44.709Z,100.00
2019-05-06T20:06:36.697Z,100.00
2019-05-06T20:09:25.853Z,100.00
2019-05-06T20:15:42.834Z,100.00
2019-05-06T20:18:16.940Z,100.00
2019-05-06T20:20:48.263Z,100.00
2019-05-06T20:24:13.750Z,100.00
2019-05-06T20:26:47.092Z,100.00
2019-05-06T20:29:22.657Z,100.00
2019-05-06T20:35:24.485Z,100.00
2019-05-06T20:37:57.739Z,100.00
2019-05-06T20:40:48.971Z,100.00
2019-05-06T20:43:25.004Z,100.00
2019-05-06T20:45:58.729Z,100.00
2019-05-06T20:48:32.534Z,100.00
2019-05-06T20:51:05.203Z,100.00
2019-05-06T20:53:37.108Z,100.00
2019-05-06T20:59:49.787Z,100.00
2019-05-06T21:02:25.833Z,100.00
2019-05-06T21:04:56.449Z,100.00
2019-05-06T21:07:34.840Z,100.00
2019-05-06T21:10:07.949Z,100.00
2019-05-06T21:12:39.542Z,100.00
2019-05-06T21:15:13.342Z,100.00
2019-05-06T21:17:43.576Z,100.00
2019-05-06T21:20:15.796Z,100.00
2019-05-06T21:22:45.057Z,100.00
2019-05-06T21:25:16.011Z,100.00
2019-05-06T21:27:56.002Z,100.00
2019-05-06T21:30:26.859Z,100.00
2019-05-06T21:32:58.147Z,100.00
2019-05-06T21:35:27.757Z,100.00
2019-05-06T21:37:57.204Z,100.00
2019-05-06T21:40:29.755Z,100.00
2019-05-06T21:42:59.424Z,100.00
2019-05-06T21:45:28.838Z,100.00
2019-05-06T21:47:58.631Z,100.00
2019-05-06T21:50:29.734Z,100.00
2019-05-06T21:52:59.272Z,100.00
2019-05-06T21:55:28.790Z,100.00
2019-05-06T21:57:58.954Z,100.00
2019-05-06T22:00:47.570Z,100.00
2019-05-06T22:03:17.207Z,100.00
2019-05-06T22:05:46.871Z,100.00
2019-05-06T22:08:17.160Z,100.00
2019-05-06T22:10:47.030Z,100.00
2019-05-06T22:13:16.464Z,100.00
2019-05-06T22:15:45.910Z,100.00
2019-05-06T22:18:15.339Z,100.00
2019-05-06T22:21:03.074Z,100.00
2019-05-06T22:23:50.364Z,100.00
2019-05-06T22:26:20.049Z,100.00
2019-05-06T22:28:49.908Z,100.00
2019-05-06T22:31:23.829Z,100.00
2019-05-06T22:33:53.041Z,100.00
2019-05-06T22:36:22.810Z,100.00
2019-05-06T22:38:53.162Z,100.00
2019-05-06T22:41:25.209Z,100.00
2019-05-06T22:43:55.512Z,100.00
2019-05-06T22:49:54.304Z,100.00
2019-05-06T22:52:24.277Z,100.00
2019-05-06T22:54:53.678Z,100.00
2019-05-06T22:57:23.588Z,100.00
2019-05-06T22:59:53.174Z,100.00
2019-05-06T23:02:38.886Z,100.00
2019-05-06T23:08:37.408Z,100.00
2019-05-06T23:11:06.908Z,100.00
2019-05-06T23:13:36.918Z,100.00
2019-05-06T23:16:06.477Z,100.00
2019-05-06T23:18:36.055Z,100.00
2019-05-06T23:21:05.718Z,100.00
2019-05-06T23:23:35.124Z,100.00
2019-05-06T23:26:38.771Z,100.00
2019-05-06T23:29:12.763Z,100.00
2019-05-06T23:31:42.576Z,100.00
2019-05-06T23:34:12.741Z,100.00
2019-05-06T23:37:26.545Z,100.00
2019-05-06T23:40:42.797Z,100.00
2019-05-06T23:44:12.446Z,100.00
2019-05-06T23:47:18.073Z,100.00
2019-05-06T23:50:23.046Z,100.00
2019-05-06T23:53:27.920Z,100.00
2019-05-06T23:56:34.657Z,100.00
2019-05-06T23:59:03.999Z,100.00
